createdAt,value
2023-04-26T00:00:42.734Z,99288.16
2023-04-26T00:03:45.006Z,99290.84
2023-04-26T00:06:47.082Z,99288.16
2023-04-26T00:09:49.302Z,99289.13
2023-04-26T00:12:52.356Z,99297.00
2023-04-26T00:15:54.165Z,99291.84
2023-04-26T00:18:55.839Z,99285.63
2023-04-26T00:21:57.561Z,99298.88
2023-04-26T00:24:59.268Z,99304.06
2023-04-26T00:28:02.361Z,99312.00
2023-04-26T00:31:04.106Z,99299.81
2023-04-26T00:34:05.752Z,99302.41
2023-04-26T00:37:07.431Z,99303.28
2023-04-26T00:40:10.206Z,99303.28
2023-04-26T00:43:13.263Z,99310.41
2023-04-26T00:46:14.998Z,99308.66
2023-04-26T00:49:18.801Z,99318.31
2023-04-26T00:52:20.569Z,99310.44
2023-04-26T00:55:22.865Z,99315.69
2023-04-26T00:58:26.255Z,99313.94
2023-04-26T01:01:28.211Z,99316.59
2023-04-26T01:04:30.146Z,99313.88
2023-04-26T01:07:32.113Z,99312.13
2023-04-26T01:10:34.667Z,99311.19
2023-04-26T01:13:38.472Z,99319.09
2023-04-26T01:16:40.026Z,99320.81
2023-04-26T01:19:47.554Z,99326.97
2023-04-26T01:22:50.624Z,99324.31
2023-04-26T01:25:52.664Z,99346.31
2023-04-26T01:28:54.870Z,99334.78
2023-04-26T01:31:56.706Z,99337.44
2023-04-26T01:34:59.505Z,99341.88
2023-04-26T01:38:02.795Z,99340.13
2023-04-26T01:41:04.794Z,99347.19
2023-04-26T01:44:06.459Z,99356.03
2023-04-26T01:47:08.290Z,99347.28
2023-04-26T01:50:10.774Z,99357.00
2023-04-26T01:53:14.214Z,99361.41
2023-04-26T01:56:15.938Z,99351.75
2023-04-26T01:59:17.656Z,99358.00
2023-04-26T02:02:19.305Z,99363.28
2023-04-26T02:05:21.559Z,99359.78
2023-04-26T02:08:24.772Z,99369.50
2023-04-26T02:11:26.545Z,99372.19
2023-04-26T02:14:28.430Z,99366.91
2023-04-26T02:17:30.065Z,99370.41
2023-04-26T02:20:31.718Z,99385.44
2023-04-26T02:23:34.833Z,99374.88
2023-04-26T02:26:36.704Z,99376.59
2023-04-26T02:29:44.332Z,99378.41
2023-04-26T02:32:46.721Z,99378.44
2023-04-26T02:35:48.434Z,99384.56
2023-04-26T02:38:53.109Z,99385.50
2023-04-26T02:41:55.064Z,99378.41
2023-04-26T02:44:56.774Z,99377.56
2023-04-26T02:47:58.507Z,99381.94
2023-04-26T02:51:01.106Z,99392.50
2023-04-26T02:54:06.470Z,99396.06
2023-04-26T02:57:09.035Z,99387.28
2023-04-26T03:00:11.778Z,99396.94
2023-04-26T03:03:13.695Z,99388.16
2023-04-26T03:06:15.511Z,99398.72
2023-04-26T03:09:18.481Z,99404.91
2023-04-26T03:12:20.386Z,99396.13
2023-04-26T03:15:22.012Z,99411.09
2023-04-26T03:18:23.662Z,99417.25
2023-04-26T03:21:25.388Z,99419.88
2023-04-26T03:24:28.397Z,99418.09
2023-04-26T03:27:30.375Z,99430.44
2023-04-26T03:30:32.200Z,99426.94
2023-04-26T03:33:35.772Z,99437.47
2023-04-26T03:36:38.139Z,99446.25
2023-04-26T03:39:41.424Z,99447.16
2023-04-26T03:42:43.385Z,99443.63
2023-04-26T03:45:47.450Z,99452.44
2023-04-26T03:48:49.330Z,99462.13
2023-04-26T03:51:51.184Z,99452.44
2023-04-26T03:54:54.284Z,99464.75
2023-04-26T03:57:56.176Z,99473.53
2023-04-26T04:00:57.882Z,99476.19
2023-04-26T04:03:59.730Z,99480.56
2023-04-26T04:07:01.821Z,99484.09
2023-04-26T04:10:05.811Z,99492.88
2023-04-26T04:13:07.832Z,99490.22
2023-04-26T04:16:09.761Z,99497.28
2023-04-26T04:19:11.659Z,99491.13
2023-04-26T04:22:13.550Z,99509.59
2023-04-26T04:25:16.828Z,99505.19
2023-04-26T04:28:18.684Z,99507.84
2023-04-26T04:31:20.506Z,99514.88
2023-04-26T04:34:22.248Z,99515.72
2023-04-26T04:37:23.985Z,99514.84
2023-04-26T04:40:27.581Z,99508.69
2023-04-26T04:43:29.208Z,99517.44
2023-04-26T04:46:34.582Z,99496.31
2023-04-26T04:49:36.320Z,99506.00
2023-04-26T04:52:38.189Z,99520.06
2023-04-26T04:55:41.526Z,99512.97
2023-04-26T04:58:43.496Z,99514.72
2023-04-26T05:01:46.524Z,99515.59
2023-04-26T05:04:48.370Z,99519.97
2023-04-26T05:07:50.064Z,99516.44
2023-04-26T05:10:53.007Z,99519.00
2023-04-26T05:13:55.129Z,99536.56
2023-04-26T05:16:57.106Z,99542.72
2023-04-26T05:19:58.800Z,99553.28
2023-04-26T05:23:00.495Z,99548.81
2023-04-26T05:26:04.903Z,99552.31
2023-04-26T05:29:06.628Z,99552.25
2023-04-26T05:32:08.498Z,99545.19
2023-04-26T05:35:10.462Z,99563.59
2023-04-26T05:38:12.108Z,99567.94
2023-04-26T05:41:15.140Z,99565.28
2023-04-26T05:44:16.900Z,99571.44
2023-04-26T05:47:18.600Z,99563.53
2023-04-26T05:50:21.910Z,99583.72
2023-04-26T05:53:23.684Z,99581.03
2023-04-26T05:56:26.729Z,99574.69
2023-04-26T05:59:28.404Z,99561.44
2023-04-26T06:02:30.491Z,99584.34
2023-04-26T06:05:32.477Z,99583.50
2023-04-26T06:08:34.381Z,99588.00
2023-04-26T06:11:37.500Z,99591.44
2023-04-26T06:14:39.193Z,99590.53
2023-04-26T06:17:41.136Z,99586.13
2023-04-26T06:20:43.112Z,99586.09
2023-04-26T06:23:45.049Z,99593.91
2023-04-26T06:26:48.085Z,99593.69
2023-04-26T06:29:49.822Z,99589.56
2023-04-26T06:32:51.555Z,99595.63
2023-04-26T06:35:53.522Z,99598.25
2023-04-26T06:38:55.142Z,99607.84
2023-04-26T06:41:58.265Z,99604.34
2023-04-26T06:45:00.216Z,99601.56
2023-04-26T06:48:02.226Z,99611.28
2023-04-26T06:51:07.538Z,99606.00
2023-04-26T06:54:10.186Z,99598.75
2023-04-26T06:57:13.464Z,99590.75
2023-04-26T07:00:15.786Z,99594.19
2023-04-26T07:03:17.702Z,99594.97
2023-04-26T07:06:19.700Z,99600.00
2023-04-26T07:09:22.674Z,99587.41
2023-04-26T07:12:25.703Z,99605.22
2023-04-26T07:15:28.227Z,99611.41
2023-04-26T07:18:29.903Z,99613.09
2023-04-26T07:21:31.598Z,99614.69
2023-04-26T07:24:33.314Z,99614.81
2023-04-26T07:27:36.368Z,99623.50
2023-04-26T07:30:38.400Z,99611.09
2023-04-26T07:33:40.416Z,99624.47
2023-04-26T07:36:42.636Z,99645.47
2023-04-26T07:39:44.482Z,99645.63
2023-04-26T07:42:47.529Z,99634.28
2023-04-26T07:45:49.326Z,99640.13
2023-04-26T07:48:51.070Z,99648.91
2023-04-26T07:51:52.728Z,99662.41
2023-04-26T07:54:55.518Z,99654.91
2023-04-26T07:57:58.509Z,99665.63
2023-04-26T08:01:00.305Z,99668.31
2023-04-26T08:04:02.845Z,99655.13
2023-04-26T08:07:04.813Z,99681.63
2023-04-26T08:10:07.326Z,99668.28
2023-04-26T08:13:10.430Z,99676.56
2023-04-26T08:16:12.455Z,99659.31
2023-04-26T08:19:14.349Z,99678.91
2023-04-26T08:22:16.043Z,99673.53
2023-04-26T08:25:17.970Z,99656.00
2023-04-26T08:28:20.936Z,99681.53
2023-04-26T08:31:23.316Z,99671.66
2023-04-26T08:34:24.999Z,99686.78
2023-04-26T08:37:29.257Z,99686.69
2023-04-26T08:40:31.395Z,99672.59
2023-04-26T08:43:37.064Z,99681.97
2023-04-26T08:46:47.512Z,99691.97
2023-04-26T08:49:54.829Z,99692.09
2023-04-26T08:52:56.733Z,99689.22
2023-04-26T08:55:59.717Z,99693.53
2023-04-26T08:59:02.961Z,99711.31
2023-04-26T09:02:05.997Z,99703.16
2023-04-26T09:05:08.721Z,99717.75
2023-04-26T09:08:13.635Z,99709.88
2023-04-26T09:11:15.599Z,99715.97
2023-04-26T09:14:18.662Z,99690.13
2023-04-26T09:17:31.025Z,99691.22
2023-04-26T09:20:32.950Z,99700.69
2023-04-26T09:23:35.389Z,99715.66
2023-04-26T09:26:37.092Z,99697.28
2023-04-26T09:29:41.328Z,99707.84
2023-04-26T09:32:51.930Z,99698.47
2023-04-26T09:35:53.913Z,99690.88
2023-04-26T09:38:55.612Z,99687.97
2023-04-26T09:41:57.574Z,99718.63
2023-04-26T09:45:07.520Z,99708.81
2023-04-26T09:48:20.268Z,99700.50
2023-04-26T09:51:21.916Z,99694.28
2023-04-26T09:54:38.145Z,99695.75
2023-04-26T09:57:43.479Z,99693.13
2023-04-26T10:00:50.063Z,99693.69
2023-04-26T10:03:53.871Z,99690.44
2023-04-26T10:06:55.664Z,99688.75
2023-04-26T10:09:58.241Z,99700.00
2023-04-26T10:13:00.547Z,99689.47
2023-04-26T10:16:04.395Z,99677.25
2023-04-26T10:19:07.437Z,99669.97
2023-04-26T10:22:14.737Z,99695.31
2023-04-26T10:25:16.425Z,99680.91
2023-04-26T10:28:18.441Z,99698.94
2023-04-26T10:31:21.542Z,99695.31
2023-04-26T10:34:23.488Z,99700.50
2023-04-26T10:37:25.232Z,99706.59
2023-04-26T10:40:28.152Z,99707.50
2023-04-26T10:43:30.275Z,99701.38
2023-04-26T10:46:38.141Z,99683.50
2023-04-26T10:49:46.881Z,99690.94
2023-04-26T10:53:06.319Z,99712.66
2023-04-26T10:56:08.389Z,99700.22
2023-04-26T10:59:33.250Z,99699.44
2023-04-26T11:02:46.274Z,99685.03
2023-04-26T11:05:52.027Z,99695.28
2023-04-26T11:08:53.907Z,99697.16
2023-04-26T11:11:56.129Z,99698.91
2023-04-26T11:15:00.207Z,99691.34
2023-04-26T11:18:04.863Z,99696.34
2023-04-26T11:21:07.197Z,99702.19
2023-04-26T11:24:08.977Z,99702.63
2023-04-26T11:27:12.005Z,99698.84
2023-04-26T11:30:14.050Z,99684.13
2023-04-26T11:33:20.959Z,99708.94
2023-04-26T11:36:22.734Z,99704.38
2023-04-26T11:39:24.510Z,99707.72
2023-04-26T11:42:26.298Z,99705.22
2023-04-26T11:45:28.144Z,99710.97
2023-04-26T11:48:31.842Z,99694.91
2023-04-26T11:51:33.928Z,99708.19
2023-04-26T11:54:36.820Z,99696.63
2023-04-26T11:57:39.672Z,99706.09
2023-04-26T12:00:56.507Z,99706.44
2023-04-26T12:04:00.378Z,99708.16
2023-04-26T12:07:04.831Z,99710.44
2023-04-26T12:10:16.429Z,99711.88
2023-04-26T12:13:19.379Z,99717.06
2023-04-26T12:16:26.876Z,99705.81
2023-04-26T12:19:33.012Z,99700.69
2023-04-26T12:22:34.629Z,99696.56
2023-04-26T12:25:38.225Z,99692.81
2023-04-26T12:28:39.953Z,99717.75
2023-04-26T12:31:42.467Z,99715.25
2023-04-26T12:34:45.573Z,99719.16
2023-04-26T12:37:47.614Z,99717.25
2023-04-26T12:40:55.776Z,99719.13
2023-04-26T12:43:57.517Z,99719.00
2023-04-26T12:47:10.837Z,99733.09
2023-04-26T12:50:22.506Z,99709.75
2023-04-26T12:53:31.013Z,99717.59
2023-04-26T12:56:34.067Z,99709.66
2023-04-26T12:59:36.429Z,99708.63
2023-04-26T13:02:39.120Z,99716.91
2023-04-26T13:05:42.288Z,99720.63
2023-04-26T13:08:43.906Z,99731.81
2023-04-26T13:11:45.952Z,99720.25
2023-04-26T13:14:47.693Z,99726.13
2023-04-26T13:17:49.403Z,99700.44
2023-04-26T13:20:52.473Z,99728.03
2023-04-26T13:23:54.243Z,99731.06
2023-04-26T13:26:56.544Z,99747.09
2023-04-26T13:29:58.568Z,99751.81
2023-04-26T13:33:01.046Z,99739.53
2023-04-26T13:36:04.545Z,99745.13
2023-04-26T13:39:06.269Z,99746.88
2023-04-26T13:42:08.229Z,99739.19
2023-04-26T13:45:10.736Z,99755.97
2023-04-26T13:48:12.529Z,99746.28
2023-04-26T13:51:15.775Z,99748.59
2023-04-26T13:54:17.848Z,99762.75
2023-04-26T13:57:19.822Z,99769.16
2023-04-26T14:00:22.570Z,99774.63
2023-04-26T14:03:24.474Z,99783.44
2023-04-26T14:06:27.663Z,99780.66
2023-04-26T14:09:29.409Z,99779.13
2023-04-26T14:12:31.113Z,99780.78
2023-04-26T14:15:32.788Z,99784.34
2023-04-26T14:18:34.586Z,99769.66
2023-04-26T14:21:37.919Z,99769.50
2023-04-26T14:24:39.912Z,99782.34
2023-04-26T14:27:41.601Z,99785.91
2023-04-26T14:30:43.725Z,99782.34
2023-04-26T14:33:45.461Z,99776.09
2023-04-26T14:36:48.474Z,99778.66
2023-04-26T14:39:50.534Z,99785.91
2023-04-26T14:42:52.194Z,99785.38
2023-04-26T14:45:53.928Z,99809.00
2023-04-26T14:48:55.602Z,99801.00
2023-04-26T14:51:58.808Z,99787.84
2023-04-26T14:55:00.769Z,99794.16
2023-04-26T14:58:02.684Z,99788.66
2023-04-26T15:01:04.701Z,99809.81
2023-04-26T15:04:06.545Z,99801.13
2023-04-26T15:07:15.286Z,99805.63
2023-04-26T15:10:23.070Z,99801.00
2023-04-26T15:13:24.744Z,99801.63
2023-04-26T15:16:26.631Z,99805.38
2023-04-26T15:19:28.581Z,99795.75
2023-04-26T15:22:32.734Z,99809.72
2023-04-26T15:25:35.357Z,99800.25
2023-04-26T15:28:37.100Z,99809.19
2023-04-26T15:31:38.797Z,99808.78
2023-04-26T15:34:41.754Z,99815.75
2023-04-26T15:37:45.061Z,99810.69
2023-04-26T15:40:46.976Z,99814.75
2023-04-26T15:43:53.349Z,99812.09
2023-04-26T15:46:55.265Z,99817.06
2023-04-26T15:50:01.366Z,99799.00
2023-04-26T15:53:04.410Z,99830.94
2023-04-26T15:56:13.922Z,99818.00
2023-04-26T15:59:15.992Z,99838.44
2023-04-26T16:02:17.662Z,99835.00
2023-04-26T16:05:19.548Z,99830.53
2023-04-26T16:08:39.525Z,99831.44
2023-04-26T16:11:42.160Z,99843.81
2023-04-26T16:14:43.963Z,99841.22
2023-04-26T16:17:45.705Z,99839.38
2023-04-26T16:20:47.506Z,99845.63
2023-04-26T16:23:50.557Z,99834.22
2023-04-26T16:26:52.571Z,99852.78
2023-04-26T16:29:54.584Z,99844.84
2023-04-26T16:32:56.673Z,99844.63
2023-04-26T16:35:58.380Z,99855.25
2023-04-26T16:39:01.461Z,99845.56
2023-04-26T16:42:03.336Z,99850.69
2023-04-26T16:45:06.159Z,99844.41
2023-04-26T16:48:07.909Z,99846.31
2023-04-26T16:51:09.595Z,99863.19
2023-04-26T16:54:12.597Z,99865.84
2023-04-26T16:57:14.350Z,99864.22
2023-04-26T17:00:17.209Z,99850.38
2023-04-26T17:03:19.125Z,99865.41
2023-04-26T17:06:22.225Z,99873.44
2023-04-26T17:09:25.311Z,99872.59
2023-04-26T17:12:27.057Z,99879.72
2023-04-26T17:15:28.912Z,99879.69
2023-04-26T17:18:30.658Z,99882.34
2023-04-26T17:21:32.943Z,99884.09
2023-04-26T17:24:36.309Z,99888.53
2023-04-26T17:27:38.088Z,99893.88
2023-04-26T17:30:39.979Z,99882.41
2023-04-26T17:33:44.270Z,99905.44
2023-04-26T17:36:47.490Z,99887.03
2023-04-26T17:39:51.141Z,99905.53
2023-04-26T17:42:52.782Z,99908.28
2023-04-26T17:45:54.805Z,99910.09
2023-04-26T17:48:57.495Z,99906.56
2023-04-26T17:51:59.691Z,99913.72
2023-04-26T17:55:03.890Z,99921.66
2023-04-26T17:58:05.759Z,99926.13
2023-04-26T18:01:11.111Z,99942.09
2023-04-26T18:04:14.213Z,99938.59
2023-04-26T18:07:16.763Z,99943.03
2023-04-26T18:10:20.447Z,99941.28
2023-04-26T18:13:22.379Z,99955.41
2023-04-26T18:16:24.929Z,99956.31
2023-04-26T18:19:27.298Z,99958.97
2023-04-26T18:22:29.260Z,99966.94
2023-04-26T18:25:32.765Z,99966.03
2023-04-26T18:28:34.504Z,99970.47
2023-04-26T18:31:39.516Z,99959.00
2023-04-26T18:34:41.421Z,99971.31
2023-04-26T18:37:44.930Z,99978.38
2023-04-26T18:40:48.557Z,99973.09
2023-04-26T18:43:50.695Z,99968.69
2023-04-26T18:46:53.503Z,99973.06
2023-04-26T18:49:56.068Z,99973.94
2023-04-26T18:52:59.439Z,99988.94
2023-04-26T18:56:04.545Z,99995.09
2023-04-26T18:59:06.864Z,99994.19
2023-04-26T19:02:11.873Z,99995.06
2023-04-26T19:05:14.646Z,99995.81
2023-04-26T19:08:17.347Z,99997.59
2023-04-26T19:11:27.545Z,99994.03
2023-04-26T19:14:29.627Z,100003.69
2023-04-26T19:17:31.631Z,100002.78
2023-04-26T19:20:34.736Z,100006.28
2023-04-26T19:23:37.416Z,100010.69
2023-04-26T19:26:41.347Z,100003.56
2023-04-26T19:29:43.613Z,100014.16
2023-04-26T19:32:46.325Z,100007.09
2023-04-26T19:35:50.786Z,100017.47
2023-04-26T19:38:53.672Z,100016.53
2023-04-26T19:41:58.544Z,100013.84
2023-04-26T19:45:00.850Z,100023.47
2023-04-26T19:48:03.580Z,100025.13
2023-04-26T19:51:06.077Z,100025.94
2023-04-26T19:54:09.756Z,100030.41
2023-04-26T19:57:13.933Z,100032.06
2023-04-26T20:00:21.145Z,100028.47
2023-04-26T20:03:24.059Z,100028.38
2023-04-26T20:06:26.501Z,100032.78
2023-04-26T20:09:28.510Z,100035.31
2023-04-26T20:12:33.635Z,100040.53
2023-04-26T20:15:35.438Z,100040.50
2023-04-26T20:18:37.881Z,100045.72
2023-04-26T20:21:39.854Z,100045.66
2023-04-26T20:24:43.394Z,100050.09
2023-04-26T20:27:48.056Z,100054.53
2023-04-26T20:30:50.551Z,100053.63
2023-04-26T20:33:52.575Z,100064.00
2023-04-26T20:36:55.970Z,100065.72
2023-04-26T20:39:58.450Z,100065.72
2023-04-26T20:43:01.787Z,100062.06
2023-04-26T20:46:04.191Z,100059.34
2023-04-26T20:49:06.930Z,100070.72
2023-04-26T20:52:09.123Z,100080.34
2023-04-26T20:55:12.070Z,100066.31
2023-04-26T20:58:15.126Z,100072.38
2023-04-26T21:01:16.830Z,100071.41
2023-04-26T21:04:18.859Z,100076.53
2023-04-26T21:07:20.623Z,100072.13
2023-04-26T21:10:22.284Z,100072.63
2023-04-26T21:13:27.756Z,100074.16
2023-04-26T21:16:29.734Z,100075.00
2023-04-26T21:19:31.445Z,100081.06
2023-04-26T21:22:33.132Z,100084.44
2023-04-26T21:25:34.789Z,100093.19
2023-04-26T21:28:37.849Z,100092.06
2023-04-26T21:31:39.602Z,100099.69
2023-04-26T21:34:41.346Z,100103.97
2023-04-26T21:37:43.259Z,100094.28
2023-04-26T21:40:45.385Z,100102.03
2023-04-26T21:43:48.632Z,100094.91
2023-04-26T21:46:50.298Z,100104.53
2023-04-26T21:49:52.226Z,100096.19
2023-04-26T21:52:54.130Z,100103.28
2023-04-26T21:55:56.297Z,100111.06
2023-04-26T21:58:59.344Z,100113.50
2023-04-26T22:02:01.220Z,100114.78
2023-04-26T22:05:02.962Z,100117.44
2023-04-26T22:08:04.921Z,100118.91
2023-04-26T22:11:06.663Z,100123.06
2023-04-26T22:14:09.691Z,100124.13
2023-04-26T22:17:11.407Z,100126.16
2023-04-26T22:20:13.196Z,100120.66
2023-04-26T22:23:14.902Z,100132.16
2023-04-26T22:26:16.614Z,100131.69
2023-04-26T22:29:19.922Z,100136.25
2023-04-26T22:32:21.686Z,100143.25
2023-04-26T22:35:23.584Z,100139.88
2023-04-26T22:38:25.447Z,100150.41
2023-04-26T22:41:27.396Z,100151.97
2023-04-26T22:44:30.416Z,100151.25
2023-04-26T22:47:32.458Z,100144.88
2023-04-26T22:50:34.542Z,100143.94
2023-04-26T22:53:36.185Z,100144.66
2023-04-26T22:56:37.841Z,100150.25
2023-04-26T22:59:41.083Z,100153.94
2023-04-26T23:02:42.804Z,100148.41
2023-04-26T23:05:44.535Z,100150.88
2023-04-26T23:08:46.204Z,100141.09
2023-04-26T23:11:48.386Z,100142.88
2023-04-26T23:14:51.673Z,100153.84
2023-04-26T23:17:53.376Z,100154.50
2023-04-26T23:20:55.136Z,100157.13
2023-04-26T23:23:56.950Z,100153.97
2023-04-26T23:26:58.676Z,100158.44
2023-04-26T23:30:02.047Z,100160.16
2023-04-26T23:33:03.856Z,100168.94
2023-04-26T23:36:06.416Z,100175.31
2023-04-26T23:39:08.068Z,100166.06
2023-04-26T23:42:09.740Z,100186.53
2023-04-26T23:45:13.227Z,100187.19
2023-04-26T23:48:15.219Z,100176.53
2023-04-26T23:51:16.920Z,100163.19
2023-04-26T23:54:18.748Z,100175.31
2023-04-26T23:57:20.427Z,100173.13
